sensor_id;sensor_type;location;lat;lon;timestamp;pressure;altitude;pressure_sealevel;temperature;humidity
54948;BME280;41113;41.882;12.530;2023-01-10T00:00:21;100266.59;;;10.63;89.62
54948;BME280;41113;41.882;12.530;2023-01-10T00:02:47;100263.16;;;10.33;89.92
54948;BME280;41113;41.882;12.530;2023-01-10T00:05:12;100256.69;;;10.16;90.51
54948;BME280;41113;41.882;12.530;2023-01-10T00:07:38;100263.47;;;10.11;88.77
54948;BME280;41113;41.882;12.530;2023-01-10T00:10:03;100253.28;;;10.05;87.76
54948;BME280;41113;41.882;12.530;2023-01-10T00:12:29;100268.25;;;10.07;88.94
54948;BME280;41113;41.882;12.530;2023-01-10T00:15:13;100261.78;;;10.00;90.52
54948;BME280;41113;41.882;12.530;2023-01-10T00:17:38;100269.81;;;10.00;91.29
54948;BME280;41113;41.882;12.530;2023-01-10T00:20:04;100276.19;;;9.99;91.14
54948;BME280;41113;41.882;12.530;2023-01-10T00:22:30;100268.56;;;9.94;91.80
54948;BME280;41113;41.882;12.530;2023-01-10T00:24:55;100269.41;;;9.95;91.92
54948;BME280;41113;41.882;12.530;2023-01-10T00:27:21;100262.06;;;9.97;92.75
54948;BME280;41113;41.882;12.530;2023-01-10T00:29:48;100264.34;;;9.92;92.68
54948;BME280;41113;41.882;12.530;2023-01-10T00:32:15;100254.44;;;10.02;92.61
54948;BME280;41113;41.882;12.530;2023-01-10T00:34:40;100254.13;;;10.05;92.49
54948;BME280;41113;41.882;12.530;2023-01-10T00:37:06;100251.03;;;10.19;92.24
54948;BME280;41113;41.882;12.530;2023-01-10T00:39:31;100254.16;;;10.24;91.83
54948;BME280;41113;41.882;12.530;2023-01-10T00:41:56;100251.03;;;10.19;92.02
54948;BME280;41113;41.882;12.530;2023-01-10T00:44:40;100253.91;;;9.79;94.12
54948;BME280;41113;41.882;12.530;2023-01-10T00:47:06;100259.66;;;9.75;94.37
54948;BME280;41113;41.882;12.530;2023-01-10T00:49:31;100252.19;;;9.68;93.71
54948;BME280;41113;41.882;12.530;2023-01-10T00:51:57;100263.47;;;9.72;93.89
54948;BME280;41113;41.882;12.530;2023-01-10T00:54:24;100260.66;;;9.74;94.23
54948;BME280;41113;41.882;12.530;2023-01-10T00:56:50;100262.34;;;9.75;94.46
54948;BME280;41113;41.882;12.530;2023-01-10T00:59:15;100258.00;;;9.83;94.37
54948;BME280;41113;41.882;12.530;2023-01-10T01:01:41;100251.63;;;9.94;94.00
54948;BME280;41113;41.882;12.530;2023-01-10T01:04:06;100250.47;;;10.06;93.47
54948;BME280;41113;41.882;12.530;2023-01-10T01:06:32;100260.34;;;10.15;92.85
54948;BME280;41113;41.882;12.530;2023-01-10T01:08:57;100267.13;;;10.19;92.61
54948;BME280;41113;41.882;12.530;2023-01-10T01:11:24;100273.63;;;10.07;92.45
54948;BME280;41113;41.882;12.530;2023-01-10T01:13:49;100271.09;;;9.96;93.16
54948;BME280;41113;41.882;12.530;2023-01-10T01:16:15;100283.53;;;9.97;93.38
54948;BME280;41113;41.882;12.530;2023-01-10T01:18:41;100290.31;;;9.82;93.93
54948;BME280;41113;41.882;12.530;2023-01-10T01:21:06;100292.00;;;9.83;94.42
54948;BME280;41113;41.882;12.530;2023-01-10T01:23:33;100281.00;;;9.95;94.45
54948;BME280;41113;41.882;12.530;2023-01-10T01:25:59;100283.25;;;10.00;93.87
54948;BME280;41113;41.882;12.530;2023-01-10T01:28:24;100274.47;;;10.08;93.87
54948;BME280;41113;41.882;12.530;2023-01-10T01:30:50;100277.28;;;10.06;93.49
54948;BME280;41113;41.882;12.530;2023-01-10T01:33:16;100273.34;;;10.01;93.56
54948;BME280;41113;41.882;12.530;2023-01-10T01:35:43;100270.94;;;10.07;93.87
54948;BME280;41113;41.882;12.530;2023-01-10T01:38:09;100270.38;;;10.13;93.49
54948;BME280;41113;41.882;12.530;2023-01-10T01:40:34;100276.19;;;9.99;92.67
54948;BME280;41113;41.882;12.530;2023-01-10T01:43:02;100272.25;;;9.84;91.72
54948;BME280;41113;41.882;12.530;2023-01-10T01:45:36;100266.88;;;9.84;91.44
54948;BME280;41113;41.882;12.530;2023-01-10T01:50:49;100276.91;;;9.82;93.19
54948;BME280;41113;41.882;12.530;2023-01-10T01:53:23;100276.47;;;9.67;93.97
54948;BME280;41113;41.882;12.530;2023-01-10T01:55:52;100286.22;;;9.58;94.75
54948;BME280;41113;41.882;12.530;2023-01-10T01:58:27;100288.88;;;9.49;94.50
54948;BME280;41113;41.882;12.530;2023-01-10T02:00:55;100279.13;;;9.38;94.79
54948;BME280;41113;41.882;12.530;2023-01-10T02:03:22;100275.44;;;9.39;94.44
54948;BME280;41113;41.882;12.530;2023-01-10T02:05:48;100277.03;;;9.51;94.33
54948;BME280;41113;41.882;12.530;2023-01-10T02:08:14;100278.59;;;9.54;93.52
54948;BME280;41113;41.882;12.530;2023-01-10T02:10:47;100288.31;;;9.64;93.06
54948;BME280;41113;41.882;12.530;2023-01-10T02:13:18;100291.44;;;9.70;92.96
54948;BME280;41113;41.882;12.530;2023-01-10T02:15:44;100300.19;;;9.81;93.13
54948;BME280;41113;41.882;12.530;2023-01-10T02:18:10;100295.97;;;9.88;92.90
54948;BME280;41113;41.882;12.530;2023-01-10T02:21:17;100302.31;;;9.97;92.73
54948;BME280;41113;41.882;12.530;2023-01-10T02:37:52;100326.44;;;9.97;92.14
54948;BME280;41113;41.882;12.530;2023-01-10T02:43:25;100320.34;;;9.56;92.82
54948;BME280;41113;41.882;12.530;2023-01-10T02:46:09;100324.72;;;9.48;93.41
54948;BME280;41113;41.882;12.530;2023-01-10T02:48:36;100313.72;;;9.51;93.72
54948;BME280;41113;41.882;12.530;2023-01-10T02:51:25;100319.38;;;9.57;93.56
54948;BME280;41113;41.882;12.530;2023-01-10T02:54:01;100326.84;;;9.63;93.20
54948;BME280;41113;41.882;12.530;2023-01-10T02:59:34;100313.88;;;9.68;90.41
54948;BME280;41113;41.882;12.530;2023-01-10T03:07:16;100321.09;;;9.78;87.67
54948;BME280;41113;41.882;12.530;2023-01-10T03:09:51;100332.38;;;9.81;86.70
54948;BME280;41113;41.882;12.530;2023-01-10T03:12:24;100343.97;;;9.82;86.99
54948;BME280;41113;41.882;12.530;2023-01-10T03:14:53;100351.44;;;9.88;87.70
54948;BME280;41113;41.882;12.530;2023-01-10T03:17:22;100354.78;;;9.61;85.62
54948;BME280;41113;41.882;12.530;2023-01-10T03:19:59;100357.72;;;9.48;87.17
54948;BME280;41113;41.882;12.530;2023-01-10T03:22:25;100363.47;;;9.34;86.28
54948;BME280;41113;41.882;12.530;2023-01-10T03:24:55;100377.69;;;8.94;88.69
54948;BME280;41113;41.882;12.530;2023-01-10T03:30:17;100399.28;;;8.19;94.01
54948;BME280;41113;41.882;12.530;2023-01-10T03:32:49;100401.00;;;8.09;94.80
54948;BME280;41113;41.882;12.530;2023-01-10T03:35:14;100406.59;;;8.06;94.59
54948;BME280;41113;41.882;12.530;2023-01-10T03:38:08;100397.19;;;8.23;94.68
54948;BME280;41113;41.882;12.530;2023-01-10T03:41:06;100390.16;;;8.42;92.99
54948;BME280;41113;41.882;12.530;2023-01-10T03:43:39;100403.25;;;8.57;92.26
54948;BME280;41113;41.882;12.530;2023-01-10T03:46:35;100391.47;;;8.69;91.80
54948;BME280;41113;41.882;12.530;2023-01-10T03:49:02;100395.09;;;8.79;90.76
54948;BME280;41113;41.882;12.530;2023-01-10T03:51:29;100402.84;;;8.82;90.76
54948;BME280;41113;41.882;12.530;2023-01-10T03:53:59;100397.22;;;8.85;90.06
54948;BME280;41113;41.882;12.530;2023-01-10T03:56:25;100402.00;;;8.82;88.66
54948;BME280;41113;41.882;12.530;2023-01-10T03:58:50;100419.94;;;8.70;88.67
54948;BME280;41113;41.882;12.530;2023-01-10T04:01:16;100422.63;;;8.70;87.97
54948;BME280;41113;41.882;12.530;2023-01-10T04:03:41;100432.81;;;8.76;87.58
54948;BME280;41113;41.882;12.530;2023-01-10T04:06:07;100423.06;;;8.75;87.56
54948;BME280;41113;41.882;12.530;2023-01-10T04:08:32;100421.38;;;8.74;86.66
54948;BME280;41113;41.882;12.530;2023-01-10T04:10:58;100420.28;;;8.77;86.36
54948;BME280;41113;41.882;12.530;2023-01-10T04:13:23;100420.28;;;8.77;85.90
54948;BME280;41113;41.882;12.530;2023-01-10T04:15:48;100422.09;;;8.76;85.16
54948;BME280;41113;41.882;12.530;2023-01-10T04:18:15;100425.75;;;8.75;85.39
54948;BME280;41113;41.882;12.530;2023-01-10T04:20:40;100434.78;;;8.74;84.91
54948;BME280;41113;41.882;12.530;2023-01-10T04:23:06;100442.94;;;8.72;84.45
54948;BME280;41113;41.882;12.530;2023-01-10T04:25:31;100456.19;;;8.74;84.91
54948;BME280;41113;41.882;12.530;2023-01-10T04:27:58;100454.09;;;8.78;84.62
54948;BME280;41113;41.882;12.530;2023-01-10T04:30:23;100457.53;;;8.80;84.12
54948;BME280;41113;41.882;12.530;2023-01-10T04:32:48;100456.41;;;8.82;84.43
54948;BME280;41113;41.882;12.530;2023-01-10T04:35:14;100460.78;;;8.83;84.44
54948;BME280;41113;41.882;12.530;2023-01-10T04:37:39;100463.47;;;8.83;84.50
54948;BME280;41113;41.882;12.530;2023-01-10T04:40:05;100476.00;;;8.83;84.01
54948;BME280;41113;41.882;12.530;2023-01-10T04:42:31;100474.16;;;8.83;84.23
54948;BME280;41113;41.882;12.530;2023-01-10T04:44:56;100492.47;;;8.78;84.21
54948;BME280;41113;41.882;12.530;2023-01-10T04:47:22;100498.56;;;8.69;84.09
54948;BME280;41113;41.882;12.530;2023-01-10T04:49:47;100497.31;;;8.73;84.26
54948;BME280;41113;41.882;12.530;2023-01-10T04:52:12;100512.00;;;8.58;84.38
54948;BME280;41113;41.882;12.530;2023-01-10T04:54:38;100509.72;;;8.53;85.32
54948;BME280;41113;41.882;12.530;2023-01-10T04:57:03;100514.50;;;8.27;86.08
54948;BME280;41113;41.882;12.530;2023-01-10T04:59:31;100515.41;;;8.17;87.08
54948;BME280;41113;41.882;12.530;2023-01-10T05:01:57;100524.00;;;8.20;87.82
54948;BME280;41113;41.882;12.530;2023-01-10T05:04:22;100523.75;;;8.23;87.44
54948;BME280;41113;41.882;12.530;2023-01-10T05:06:48;100530.09;;;8.11;87.47
54948;BME280;41113;41.882;12.530;2023-01-10T05:09:13;100539.09;;;8.10;88.19
54948;BME280;41113;41.882;12.530;2023-01-10T05:11:39;100545.16;;;8.12;88.42
54948;BME280;41113;41.882;12.530;2023-01-10T05:14:04;100546.38;;;8.08;88.56
54948;BME280;41113;41.882;12.530;2023-01-10T05:16:30;100547.28;;;7.86;88.99
54948;BME280;41113;41.882;12.530;2023-01-10T05:18:55;100552.03;;;7.83;89.63
54948;BME280;41113;41.882;12.530;2023-01-10T05:21:21;100547.38;;;7.73;89.43
54948;BME280;41113;41.882;12.530;2023-01-10T05:23:46;100555.66;;;7.59;90.14
54948;BME280;41113;41.882;12.530;2023-01-10T05:26:15;100548.34;;;7.39;89.97
54948;BME280;41113;41.882;12.530;2023-01-10T05:28:40;100551.25;;;7.25;90.64
54948;BME280;41113;41.882;12.530;2023-01-10T05:31:07;100555.72;;;7.24;90.44
54948;BME280;41113;41.882;12.530;2023-01-10T05:33:33;100554.88;;;7.24;90.33
54948;BME280;41113;41.882;12.530;2023-01-10T05:36:03;100563.56;;;7.14;89.55
54948;BME280;41113;41.882;12.530;2023-01-10T05:38:29;100572.47;;;7.26;89.86
54948;BME280;41113;41.882;12.530;2023-01-10T05:40:56;100574.53;;;7.23;87.51
54948;BME280;41113;41.882;12.530;2023-01-10T05:43:25;100581.47;;;7.36;87.27
54948;BME280;41113;41.882;12.530;2023-01-10T05:45:51;100585.00;;;7.37;84.84
54948;BME280;41113;41.882;12.530;2023-01-10T05:48:17;100593.06;;;7.48;84.24
54948;BME280;41113;41.882;12.530;2023-01-10T05:50:43;100590.28;;;7.61;83.30
54948;BME280;41113;41.882;12.530;2023-01-10T05:53:09;100594.78;;;7.60;83.36
54948;BME280;41113;41.882;12.530;2023-01-10T05:55:34;100604.97;;;7.66;82.28
54948;BME280;41113;41.882;12.530;2023-01-10T05:58:00;100605.34;;;7.73;81.52
54948;BME280;41113;41.882;12.530;2023-01-10T06:00:25;100614.94;;;7.64;81.26
54948;BME280;41113;41.882;12.530;2023-01-10T06:02:55;100617.84;;;7.61;81.92
54948;BME280;41113;41.882;12.530;2023-01-10T06:05:22;100617.63;;;7.64;81.48
54948;BME280;41113;41.882;12.530;2023-01-10T06:07:47;100625.75;;;7.63;81.07
54948;BME280;41113;41.882;12.530;2023-01-10T06:10:13;100626.84;;;7.60;80.57
54948;BME280;41113;41.882;12.530;2023-01-10T06:12:39;100639.13;;;7.63;81.20
54948;BME280;41113;41.882;12.530;2023-01-10T06:15:05;100633.66;;;7.64;81.10
54948;BME280;41113;41.882;12.530;2023-01-10T06:17:31;100640.94;;;7.62;80.77
54948;BME280;41113;41.882;12.530;2023-01-10T06:19:57;100648.22;;;7.60;80.98
54948;BME280;41113;41.882;12.530;2023-01-10T06:22:22;100652.59;;;7.50;80.77
54948;BME280;41113;41.882;12.530;2023-01-10T06:24:47;100649.44;;;7.56;80.94
54948;BME280;41113;41.882;12.530;2023-01-10T06:27:13;100646.63;;;7.58;81.12
54948;BME280;41113;41.882;12.530;2023-01-10T06:29:38;100644.81;;;7.58;80.63
54948;BME280;41113;41.882;12.530;2023-01-10T06:32:03;100658.44;;;7.66;80.77
54948;BME280;41113;41.882;12.530;2023-01-10T06:34:29;100659.16;;;7.57;80.56
54948;BME280;41113;41.882;12.530;2023-01-10T06:36:54;100672.53;;;7.68;79.74
54948;BME280;41113;41.882;12.530;2023-01-10T06:39:20;100668.88;;;7.69;79.78
54948;BME280;41113;41.882;12.530;2023-01-10T06:41:45;100676.28;;;7.66;79.71
54948;BME280;41113;41.882;12.530;2023-01-10T06:44:10;100687.81;;;7.55;79.99
54948;BME280;41113;41.882;12.530;2023-01-10T06:46:36;100700.69;;;7.50;80.40
54948;BME280;41113;41.882;12.530;2023-01-10T06:49:01;100696.75;;;7.43;80.55
54948;BME280;41113;41.882;12.530;2023-01-10T06:51:26;100702.09;;;7.43;81.35
54948;BME280;41113;41.882;12.530;2023-01-10T06:53:52;100717.16;;;7.44;81.32
54948;BME280;41113;41.882;12.530;2023-01-10T06:56:17;100722.50;;;7.44;81.83
54948;BME280;41113;41.882;12.530;2023-01-10T06:58:43;100722.97;;;7.38;82.13
54948;BME280;41113;41.882;12.530;2023-01-10T07:01:13;100744.78;;;7.32;83.73
54948;BME280;41113;41.882;12.530;2023-01-10T07:03:39;100744.63;;;7.22;83.95
54948;BME280;41113;41.882;12.530;2023-01-10T07:06:05;100756.41;;;7.20;84.01
54948;BME280;41113;41.882;12.530;2023-01-10T07:08:40;100758.03;;;7.09;84.37
54948;BME280;41113;41.882;12.530;2023-01-10T07:11:08;100747.66;;;7.17;84.48
54948;BME280;41113;41.882;12.530;2023-01-10T07:13:34;100755.72;;;7.29;84.05
54948;BME280;41113;41.882;12.530;2023-01-10T07:16:01;100758.50;;;7.51;83.46
54948;BME280;41113;41.882;12.530;2023-01-10T07:18:27;100764.50;;;7.66;82.71
54948;BME280;41113;41.882;12.530;2023-01-10T07:20:52;100767.44;;;7.74;82.80
54948;BME280;41113;41.882;12.530;2023-01-10T07:23:17;100775.34;;;7.75;81.78
54948;BME280;41113;41.882;12.530;2023-01-10T07:25:43;100776.88;;;7.91;81.66
54948;BME280;41113;41.882;12.530;2023-01-10T07:28:08;100773.72;;;7.97;80.62
54948;BME280;41113;41.882;12.530;2023-01-10T07:30:34;100778.34;;;8.06;80.67
54948;BME280;41113;41.882;12.530;2023-01-10T07:32:59;100783.22;;;8.12;79.71
54948;BME280;41113;41.882;12.530;2023-01-10T07:35:28;100777.91;;;8.23;79.97
54948;BME280;41113;41.882;12.530;2023-01-10T07:37:57;100774.75;;;8.29;79.67
54948;BME280;41113;41.882;12.530;2023-01-10T07:40:22;100778.41;;;8.28;78.90
54948;BME280;41113;41.882;12.530;2023-01-10T07:42:48;100779.25;;;8.29;77.40
54948;BME280;41113;41.882;12.530;2023-01-10T07:45:14;100791.91;;;8.27;77.27
54948;BME280;41113;41.882;12.530;2023-01-10T07:47:40;100795.44;;;8.27;76.68
54948;BME280;41113;41.882;12.530;2023-01-10T07:50:06;100800.78;;;8.27;76.37
54948;BME280;41113;41.882;12.530;2023-01-10T07:52:32;100802.59;;;8.27;76.42
54948;BME280;41113;41.882;12.530;2023-01-10T07:54:57;100805.78;;;8.32;77.28
54948;BME280;41113;41.882;12.530;2023-01-10T07:57:23;100809.31;;;8.32;76.97
54948;BME280;41113;41.882;12.530;2023-01-10T07:59:48;100817.00;;;8.37;75.68
54948;BME280;41113;41.882;12.530;2023-01-10T08:02:13;100817.38;;;8.43;76.41
54948;BME280;41113;41.882;12.530;2023-01-10T08:04:39;100828.44;;;8.39;75.52
54948;BME280;41113;41.882;12.530;2023-01-10T08:07:04;100835.03;;;8.46;76.11
54948;BME280;41113;41.882;12.530;2023-01-10T08:09:30;100842.09;;;8.47;75.59
54948;BME280;41113;41.882;12.530;2023-01-10T08:11:55;100852.41;;;8.40;76.77
54948;BME280;41113;41.882;12.530;2023-01-10T08:14:20;100847.25;;;8.26;76.32
54948;BME280;41113;41.882;12.530;2023-01-10T08:16:46;100857.16;;;8.37;76.40
54948;BME280;41113;41.882;12.530;2023-01-10T08:19:11;100859.22;;;8.45;75.89
54948;BME280;41113;41.882;12.530;2023-01-10T08:21:41;100863.03;;;8.53;75.60
54948;BME280;41113;41.882;12.530;2023-01-10T08:24:06;100877.50;;;8.51;75.28
54948;BME280;41113;41.882;12.530;2023-01-10T08:26:31;100877.00;;;8.46;75.64
54948;BME280;41113;41.882;12.530;2023-01-10T08:29:00;100891.63;;;8.53;75.39
54948;BME280;41113;41.882;12.530;2023-01-10T08:31:26;100879.34;;;8.50;75.27
54948;BME280;41113;41.882;12.530;2023-01-10T08:33:51;100890.19;;;8.60;75.59
54948;BME280;41113;41.882;12.530;2023-01-10T08:36:18;100899.66;;;8.53;75.07
54948;BME280;41113;41.882;12.530;2023-01-10T08:38:44;100904.41;;;8.60;74.60
54948;BME280;41113;41.882;12.530;2023-01-10T08:41:10;100908.44;;;8.66;74.25
54948;BME280;41113;41.882;12.530;2023-01-10T08:43:36;100908.69;;;8.74;74.24
54948;BME280;41113;41.882;12.530;2023-01-10T08:46:01;100908.84;;;8.84;74.21
54948;BME280;41113;41.882;12.530;2023-01-10T08:48:27;100900.22;;;8.91;73.75
54948;BME280;41113;41.882;12.530;2023-01-10T08:50:52;100903.97;;;9.00;73.76
54948;BME280;41113;41.882;12.530;2023-01-10T08:53:17;100904.81;;;9.00;73.33
54948;BME280;41113;41.882;12.530;2023-01-10T08:55:43;100912.03;;;9.11;72.91
54948;BME280;41113;41.882;12.530;2023-01-10T08:58:08;100914.59;;;9.13;71.35
54948;BME280;41113;41.882;12.530;2023-01-10T09:00:34;100917.28;;;9.24;71.86
54948;BME280;41113;41.882;12.530;2023-01-10T09:02:59;100928.47;;;9.29;71.93
54948;BME280;41113;41.882;12.530;2023-01-10T09:05:25;100926.88;;;9.38;71.50
54948;BME280;41113;41.882;12.530;2023-01-10T09:07:50;100938.72;;;9.46;70.22
54948;BME280;41113;41.882;12.530;2023-01-10T09:10:16;100938.94;;;9.54;71.19
54948;BME280;41113;41.882;12.530;2023-01-10T09:12:41;100953.06;;;9.56;69.73
54948;BME280;41113;41.882;12.530;2023-01-10T09:15:23;100953.06;;;9.67;70.52
54948;BME280;41113;41.882;12.530;2023-01-10T09:17:52;100967.19;;;9.70;69.51
54948;BME280;41113;41.882;12.530;2023-01-10T09:20:18;100972.56;;;9.70;69.37
54948;BME280;41113;41.882;12.530;2023-01-10T09:22:44;100971.84;;;9.79;69.13
54948;BME280;41113;41.882;12.530;2023-01-10T09:25:09;100965.59;;;9.89;68.15
54948;BME280;41113;41.882;12.530;2023-01-10T09:27:35;100966.41;;;10.01;68.13
54948;BME280;41113;41.882;12.530;2023-01-10T09:30:00;100969.41;;;10.19;67.84
54948;BME280;41113;41.882;12.530;2023-01-10T09:32:26;100967.81;;;10.27;67.34
54948;BME280;41113;41.882;12.530;2023-01-10T09:34:51;100961.53;;;10.49;67.31
54948;BME280;41113;41.882;12.530;2023-01-10T09:37:17;100971.81;;;10.65;66.25
54948;BME280;41113;41.882;12.530;2023-01-10T09:39:42;100979.69;;;10.78;65.75
54948;BME280;41113;41.882;12.530;2023-01-10T09:44:50;100970.53;;;10.80;62.69
54948;BME280;41113;41.882;12.530;2023-01-10T09:52:51;100993.84;;;11.01;62.09
54948;BME280;41113;41.882;12.530;2023-01-10T09:55:24;100975.25;;;11.09;61.67
54948;BME280;41113;41.882;12.530;2023-01-10T09:57:51;100976.47;;;11.05;61.30
54948;BME280;41113;41.882;12.530;2023-01-10T10:00:22;100974.53;;;11.07;62.30
54948;BME280;41113;41.882;12.530;2023-01-10T10:02:52;100974.84;;;11.13;61.14
54948;BME280;41113;41.882;12.530;2023-01-10T10:05:21;100979.09;;;11.16;60.04
54948;BME280;41113;41.882;12.530;2023-01-10T10:07:55;100974.97;;;11.12;60.62
54948;BME280;41113;41.882;12.530;2023-01-10T10:10:25;100974.44;;;11.18;59.86
54948;BME280;41113;41.882;12.530;2023-01-10T10:16:10;100974.03;;;11.22;59.55
54948;BME280;41113;41.882;12.530;2023-01-10T10:19:00;100981.81;;;11.26;58.96
54948;BME280;41113;41.882;12.530;2023-01-10T10:34:33;100988.63;;;11.50;57.44
54948;BME280;41113;41.882;12.530;2023-01-10T10:37:20;100994.69;;;11.52;56.90
54948;BME280;41113;41.882;12.530;2023-01-10T10:39:54;100985.06;;;11.50;56.31
54948;BME280;41113;41.882;12.530;2023-01-10T10:42:21;100992.19;;;11.61;58.88
54948;BME280;41113;41.882;12.530;2023-01-10T10:44:57;100987.97;;;11.68;56.99
54948;BME280;41113;41.882;12.530;2023-01-10T10:47:27;100985.75;;;11.73;56.46
54948;BME280;41113;41.882;12.530;2023-01-10T10:49:59;100989.13;;;11.75;55.87
54948;BME280;41113;41.882;12.530;2023-01-10T10:52:33;100999.38;;;11.81;57.30
54948;BME280;41113;41.882;12.530;2023-01-10T10:54:59;100996.28;;;11.86;56.40
54948;BME280;41113;41.882;12.530;2023-01-10T10:57:29;100996.84;;;11.89;55.91
54948;BME280;41113;41.882;12.530;2023-01-10T10:59:56;100999.97;;;11.94;56.26
54948;BME280;41113;41.882;12.530;2023-01-10T11:04:52;100998.00;;;11.96;53.33
54948;BME280;41113;41.882;12.530;2023-01-10T11:07:19;101000.41;;;11.99;53.68
54948;BME280;41113;41.882;12.530;2023-01-10T11:09:46;100997.72;;;11.99;54.00
54948;BME280;41113;41.882;12.530;2023-01-10T11:12:20;100999.88;;;12.05;53.78
54948;BME280;41113;41.882;12.530;2023-01-10T11:14:50;101005.41;;;12.04;52.38
54948;BME280;41113;41.882;12.530;2023-01-10T11:17:22;100996.34;;;12.05;51.97
54948;BME280;41113;41.882;12.530;2023-01-10T11:22:23;101002.44;;;12.17;52.35
54948;BME280;41113;41.882;12.530;2023-01-10T11:24:54;101003.31;;;12.17;51.17
54948;BME280;41113;41.882;12.530;2023-01-10T11:27:27;101002.47;;;12.26;52.38
54948;BME280;41113;41.882;12.530;2023-01-10T11:30:01;100991.25;;;12.31;50.13
54948;BME280;41113;41.882;12.530;2023-01-10T11:32:32;101002.88;;;12.31;49.21
54948;BME280;41113;41.882;12.530;2023-01-10T11:35:01;101018.19;;;12.31;48.96
54948;BME280;41113;41.882;12.530;2023-01-10T11:37:31;101016.91;;;12.35;48.33
54948;BME280;41113;41.882;12.530;2023-01-10T11:40:14;101006.16;;;12.35;47.96
54948;BME280;41113;41.882;12.530;2023-01-10T11:42:41;101001.50;;;12.37;46.79
54948;BME280;41113;41.882;12.530;2023-01-10T11:47:57;101004.34;;;12.45;47.87
54948;BME280;41113;41.882;12.530;2023-01-10T11:50:31;101009.72;;;12.45;46.28
54948;BME280;41113;41.882;12.530;2023-01-10T11:52:57;101015.41;;;12.42;45.21
54948;BME280;41113;41.882;12.530;2023-01-10T11:55:25;101013.97;;;12.38;45.68
54948;BME280;41113;41.882;12.530;2023-01-10T11:58:04;101020.78;;;12.42;45.17
54948;BME280;41113;41.882;12.530;2023-01-10T12:00:42;101009.72;;;12.45;44.93
54948;BME280;41113;41.882;12.530;2023-01-10T12:03:24;101021.06;;;12.39;43.12
54948;BME280;41113;41.882;12.530;2023-01-10T12:05:55;101019.38;;;12.38;42.72
54948;BME280;41113;41.882;12.530;2023-01-10T12:11:04;101018.09;;;12.42;43.12
54948;BME280;41113;41.882;12.530;2023-01-10T12:13:43;101026.19;;;12.42;42.38
54948;BME280;41113;41.882;12.530;2023-01-10T12:18:52;101018.81;;;12.44;42.93
54948;BME280;41113;41.882;12.530;2023-01-10T12:21:40;101020.50;;;12.45;42.86
54948;BME280;41113;41.882;12.530;2023-01-10T12:24:17;101023.91;;;12.47;43.24
54948;BME280;41113;41.882;12.530;2023-01-10T12:26:47;101016.81;;;12.46;43.61
54948;BME280;41113;41.882;12.530;2023-01-10T12:29:17;101020.94;;;12.50;43.62
54948;BME280;41113;41.882;12.530;2023-01-10T12:31:44;101020.50;;;12.55;44.83
54948;BME280;41113;41.882;12.530;2023-01-10T12:34:14;101028.72;;;12.53;43.07
54948;BME280;41113;41.882;12.530;2023-01-10T12:36:42;101034.13;;;12.53;41.92
54948;BME280;41113;41.882;12.530;2023-01-10T12:39:22;101039.22;;;12.56;42.08
54948;BME280;41113;41.882;12.530;2023-01-10T12:44:48;101036.25;;;12.59;41.98
54948;BME280;41113;41.882;12.530;2023-01-10T12:47:19;101055.09;;;12.59;40.16
54948;BME280;41113;41.882;12.530;2023-01-10T12:49:55;101054.25;;;12.59;40.17
54948;BME280;41113;41.882;12.530;2023-01-10T12:55:14;101063.19;;;12.59;40.11
54948;BME280;41113;41.882;12.530;2023-01-10T12:57:41;101071.25;;;12.59;40.21
54948;BME280;41113;41.882;12.530;2023-01-10T13:00:19;101068.72;;;12.58;39.30
54948;BME280;41113;41.882;12.530;2023-01-10T13:02:45;101064.88;;;12.60;40.71
54948;BME280;41113;41.882;12.530;2023-01-10T13:05:17;101067.59;;;12.60;40.79
54948;BME280;41113;41.882;12.530;2023-01-10T13:07:45;101070.28;;;12.60;40.83
54948;BME280;41113;41.882;12.530;2023-01-10T13:10:16;101071.56;;;12.66;42.40
54948;BME280;41113;41.882;12.530;2023-01-10T13:12:48;101068.84;;;12.66;40.61
54948;BME280;41113;41.882;12.530;2023-01-10T13:15:21;101068.72;;;12.67;41.33
54948;BME280;41113;41.882;12.530;2023-01-10T13:17:54;101071.16;;;12.70;41.54
54948;BME280;41113;41.882;12.530;2023-01-10T13:22:54;101074.84;;;12.69;42.59
54948;BME280;41113;41.882;12.530;2023-01-10T13:25:32;101076.81;;;12.67;41.50
54948;BME280;41113;41.882;12.530;2023-01-10T13:28:05;101077.78;;;12.66;40.84
54948;BME280;41113;41.882;12.530;2023-01-10T13:30:34;101070.56;;;12.67;40.95
54948;BME280;41113;41.882;12.530;2023-01-10T13:33:22;101076.81;;;12.67;41.14
54948;BME280;41113;41.882;12.530;2023-01-10T13:35:51;101068.72;;;12.67;40.54
54948;BME280;41113;41.882;12.530;2023-01-10T13:38:19;101074.38;;;12.64;42.03
54948;BME280;41113;41.882;12.530;2023-01-10T13:51:28;101090.16;;;12.69;41.25
54948;BME280;41113;41.882;12.530;2023-01-10T13:54:01;101097.97;;;12.72;41.39
54948;BME280;41113;41.882;12.530;2023-01-10T13:58:53;101095.69;;;12.77;42.71
54948;BME280;41113;41.882;12.530;2023-01-10T14:01:37;101109.47;;;12.74;40.91
54948;BME280;41113;41.882;12.530;2023-01-10T14:04:24;101115.00;;;12.72;41.56
54948;BME280;41113;41.882;12.530;2023-01-10T14:06:56;101109.47;;;12.74;42.11
54948;BME280;41113;41.882;12.530;2023-01-10T14:11:53;101122.09;;;12.73;41.39
54948;BME280;41113;41.882;12.530;2023-01-10T14:16:53;101113.00;;;12.74;41.65
54948;BME280;41113;41.882;12.530;2023-01-10T14:19:31;101120.09;;;12.75;42.11
54948;BME280;41113;41.882;12.530;2023-01-10T14:21:59;101125.78;;;12.72;42.39
54948;BME280;41113;41.882;12.530;2023-01-10T14:24:39;101126.06;;;12.69;41.90
54948;BME280;41113;41.882;12.530;2023-01-10T14:27:10;101131.44;;;12.69;42.22